Time;durP1;ratioP1;P1;durP2;ratioP2;P2;SDS_P1;SDS_P2;PMS_P1;PMS_P2;Temp;Humidity;BMP_temperature;BMP_pressure;BME280_temperature;BME280_humidity;BME280_pressure;Samples;Min_cycle;Max_cycle;Signal;HPM_P1;HPM_P2
2021/12/09 00:01:13;;;;;;;;;;;;;;;4.04;67.54;99168.06;4453376;32;34886;-62
2021/12/09 00:03:41;;;;;;;;;;;;;;;4.06;66.93;99161.34;4453178;32;32495;-63
2021/12/09 00:06:09;;;;;;;;;;;;;;;3.83;68.11;99161.63;4455587;32;35159;-63
2021/12/09 00:08:37;;;;;;;;;;;;;;;3.51;69.20;99147.72;4456179;32;34331;-62
2021/12/09 00:11:07;;;;;;;;;;;;;;;3.69;68.46;99154.00;4456207;32;34229;-63
2021/12/09 00:13:34;;;;;;;;;;;;;;;3.42;69.86;99163.41;4441623;32;33947;-63
2021/12/09 00:16:02;;;;;;;;;;;;;;;3.69;68.60;99169.38;4455608;32;34392;-63
2021/12/09 00:18:29;;;;;;;;;;;;;;;3.72;68.64;99174.66;4455455;32;34150;-62
2021/12/09 00:20:56;;;;;;;;;;;;;;;3.69;68.62;99179.59;4453050;32;34822;-62
2021/12/09 00:23:23;;;;;;;;;;;;;;;3.83;67.64;99187.25;4462578;32;34846;-62
2021/12/09 00:25:51;;;;;;;;;;;;;;;3.69;68.05;99179.59;4455211;32;34334;-62
2021/12/09 00:28:18;;;;;;;;;;;;;;;3.80;68.10;99175.12;4461245;32;34330;-63
2021/12/09 00:30:45;;;;;;;;;;;;;;;3.62;68.33;99177.44;4456267;32;34174;-62
2021/12/09 00:33:15;;;;;;;;;;;;;;;3.65;68.71;99180.22;4455430;32;34946;-63
2021/12/09 00:35:47;;;;;;;;;;;;;;;3.27;69.97;99157.34;4446817;32;33718;-63
2021/12/09 00:38:24;;;;;;;;;;;;;;;3.47;69.28;99143.22;4457874;32;33608;-63
2021/12/09 00:40:52;;;;;;;;;;;;;;;3.30;69.78;99132.81;4443950;32;34607;-62
2021/12/09 00:43:20;;;;;;;;;;;;;;;3.19;70.30;99138.94;4456553;32;35036;-62
2021/12/09 00:45:47;;;;;;;;;;;;;;;3.33;69.77;99138.09;4454901;32;34956;-63
2021/12/09 00:48:14;;;;;;;;;;;;;;;3.25;70.38;99134.19;4454904;32;33407;-63
2021/12/09 00:50:41;;;;;;;;;;;;;;;3.45;69.95;99124.31;4447468;32;34851;-63
2021/12/09 00:53:08;;;;;;;;;;;;;;;3.23;70.35;99115.31;4454355;32;34809;-63
2021/12/09 00:55:36;;;;;;;;;;;;;;;3.15;70.26;99094.34;4456029;32;35087;-63
2021/12/09 00:58:04;;;;;;;;;;;;;;;3.12;70.39;99103.50;4448369;32;31801;-63
2021/12/09 01:00:31;;;;;;;;;;;;;;;3.19;70.47;99092.88;4457181;32;34273;-62
2021/12/09 01:02:59;;;;;;;;;;;;;;;3.43;69.62;99096.03;4454762;32;34962;-62
2021/12/09 01:05:26;;;;;;;;;;;;;;;3.02;70.85;99090.94;4440107;32;32615;-62
2021/12/09 01:07:54;;;;;;;;;;;;;;;3.15;70.43;99093.47;4454259;32;34236;-63
2021/12/09 01:10:21;;;;;;;;;;;;;;;3.22;70.16;99098.16;4462258;32;35040;-63
2021/12/09 01:12:49;;;;;;;;;;;;;;;3.22;70.38;99108.41;4454262;32;34069;-62
2021/12/09 01:15:16;;;;;;;;;;;;;;;3.81;68.67;99114.56;4454812;32;35209;-63
2021/12/09 01:17:44;;;;;;;;;;;;;;;3.53;69.03;99125.66;4455066;32;33568;-63
2021/12/09 01:20:12;;;;;;;;;;;;;;;3.60;68.81;99120.12;4455163;32;34251;-63
2021/12/09 01:22:42;;;;;;;;;;;;;;;3.17;70.42;99119.13;4441627;32;34215;-63
2021/12/09 01:25:10;;;;;;;;;;;;;;;2.92;71.61;99117.59;4456334;32;34281;-63
2021/12/09 01:27:41;;;;;;;;;;;;;;;3.51;69.36;99119.56;4452908;32;33687;-63
2021/12/09 01:30:12;;;;;;;;;;;;;;;3.81;67.96;99117.13;4454570;32;35944;-63
2021/12/09 01:32:43;;;;;;;;;;;;;;;3.55;69.14;99116.37;4454653;32;34306;-63
2021/12/09 01:35:10;;;;;;;;;;;;;;;3.51;69.23;99122.13;4462828;32;33744;-63
2021/12/09 01:37:39;;;;;;;;;;;;;;;3.77;68.16;99095.53;4453932;32;34254;-62
2021/12/09 01:40:07;;;;;;;;;;;;;;;3.64;68.45;99088.78;4454778;32;34205;-63
2021/12/09 01:42:34;;;;;;;;;;;;;;;3.46;69.30;99087.69;4449690;32;34823;-62
2021/12/09 01:45:03;;;;;;;;;;;;;;;3.60;68.93;99079.16;4439160;32;35198;-63
2021/12/09 01:47:30;;;;;;;;;;;;;;;2.92;70.94;99069.00;4455568;32;33319;-63
2021/12/09 01:49:58;;;;;;;;;;;;;;;3.10;70.44;99061.56;4444075;32;35037;-63
2021/12/09 01:52:25;;;;;;;;;;;;;;;3.42;69.41;99062.66;4451472;32;34070;-63
2021/12/09 01:54:52;;;;;;;;;;;;;;;3.39;69.68;99058.25;4452648;32;33727;-63
2021/12/09 01:57:19;;;;;;;;;;;;;;;3.33;69.63;99050.19;4454829;32;34275;-63
2021/12/09 01:59:47;;;;;;;;;;;;;;;3.44;69.08;99043.16;4456518;32;34228;-62
2021/12/09 02:02:15;;;;;;;;;;;;;;;3.28;69.46;99034.56;4454602;32;34085;-63
2021/12/09 02:04:43;;;;;;;;;;;;;;;3.40;69.32;99042.13;4453844;32;35083;-63
2021/12/09 02:07:10;;;;;;;;;;;;;;;3.06;70.00;99050.25;4456089;32;34260;-62
2021/12/09 02:09:38;;;;;;;;;;;;;;;3.22;69.59;99046.09;4455544;32;33847;-63
2021/12/09 02:12:06;;;;;;;;;;;;;;;3.38;69.21;99043.69;4448179;32;34734;-62
2021/12/09 02:14:33;;;;;;;;;;;;;;;2.95;70.69;99029.16;4454511;32;35005;-62
2021/12/09 02:17:00;;;;;;;;;;;;;;;2.80;71.41;99014.50;4455823;32;33983;-62
2021/12/09 02:19:28;;;;;;;;;;;;;;;2.75;71.63;98998.88;4440465;32;33821;-63
2021/12/09 02:21:55;;;;;;;;;;;;;;;2.80;71.47;99005.16;4453580;32;34249;-63
2021/12/09 02:24:22;;;;;;;;;;;;;;;3.18;70.13;99014.31;4458289;32;34305;-63
2021/12/09 02:26:50;;;;;;;;;;;;;;;3.19;70.00;99026.31;4454158;32;34360;-63
2021/12/09 02:29:17;;;;;;;;;;;;;;;3.48;68.69;99019.53;4454061;32;32703;-63
2021/12/09 02:31:45;;;;;;;;;;;;;;;3.25;69.71;99031.81;4454096;32;34833;-63
2021/12/09 02:34:12;;;;;;;;;;;;;;;3.63;67.97;99035.81;4454466;32;34463;-62
2021/12/09 02:36:41;;;;;;;;;;;;;;;2.78;70.80;99016.94;4456302;32;33561;-63
2021/12/09 02:39:09;;;;;;;;;;;;;;;2.77;71.08;99010.09;4454970;32;33883;-63
2021/12/09 02:41:37;;;;;;;;;;;;;;;3.37;69.21;99005.19;4454142;32;34351;-63
2021/12/09 02:44:05;;;;;;;;;;;;;;;2.98;69.89;99020.78;4454364;32;34435;-63
2021/12/09 02:46:36;;;;;;;;;;;;;;;2.77;70.66;99004.97;4456326;32;33735;-63
2021/12/09 02:49:04;;;;;;;;;;;;;;;2.71;71.03;99012.25;4458965;32;33924;-63
2021/12/09 02:51:31;;;;;;;;;;;;;;;3.10;69.72;99053.91;4453303;32;33967;-63
2021/12/09 02:53:59;;;;;;;;;;;;;;;3.20;69.50;99051.13;4440019;32;33508;-63
2021/12/09 02:56:26;;;;;;;;;;;;;;;3.03;70.13;99049.19;4454238;32;33631;-63
2021/12/09 02:58:53;;;;;;;;;;;;;;;2.75;71.08;99021.88;4453344;32;34135;-63
2021/12/09 03:01:22;;;;;;;;;;;;;;;2.58;71.95;99012.28;4454059;32;33844;-62
2021/12/09 03:03:54;;;;;;;;;;;;;;;2.78;71.64;99022.06;4453681;32;34878;-63
2021/12/09 03:06:33;;;;;;;;;;;;;;;2.51;72.56;99019.56;4454101;32;33675;-63
2021/12/09 03:09:02;;;;;;;;;;;;;;;2.56;72.41;99010.50;4454070;32;33922;-63
2021/12/09 03:11:30;;;;;;;;;;;;;;;2.78;71.65;98996.50;4453922;32;33849;-62
2021/12/09 03:13:57;;;;;;;;;;;;;;;2.84;71.94;98986.66;4441370;32;34523;-63
2021/12/09 03:16:25;;;;;;;;;;;;;;;3.02;71.15;98994.59;4447517;32;33790;-63
2021/12/09 03:18:54;;;;;;;;;;;;;;;2.92;70.94;99011.03;4444918;32;34135;-63
2021/12/09 03:21:32;;;;;;;;;;;;;;;3.04;70.85;99023.69;4458444;32;34081;-62
2021/12/09 03:24:00;;;;;;;;;;;;;;;3.13;70.47;99031.06;4461963;32;34517;-63
2021/12/09 03:26:29;;;;;;;;;;;;;;;3.23;70.31;99038.53;4464069;32;33441;-62
2021/12/09 03:28:57;;;;;;;;;;;;;;;3.23;70.40;99032.53;4458326;32;33920;-62
2021/12/09 03:31:25;;;;;;;;;;;;;;;3.01;71.24;99022.62;4458482;32;35066;-63
2021/12/09 03:33:52;;;;;;;;;;;;;;;3.01;71.47;99009.84;4458454;32;34497;-62
2021/12/09 03:36:19;;;;;;;;;;;;;;;3.07;71.17;99005.09;4460398;32;34249;-63
2021/12/09 03:38:47;;;;;;;;;;;;;;;3.33;70.05;98989.66;4467447;32;34939;-62
2021/12/09 03:41:14;;;;;;;;;;;;;;;3.20;70.38;99002.50;4456074;32;33611;-62
2021/12/09 03:43:41;;;;;;;;;;;;;;;3.40;69.60;99010.47;4446027;32;34564;-62
2021/12/09 03:46:08;;;;;;;;;;;;;;;3.81;68.49;99000.16;4454539;32;33297;-62
2021/12/09 03:48:36;;;;;;;;;;;;;;;3.11;71.09;99023.31;4458893;32;34012;-62
2021/12/09 03:51:03;;;;;;;;;;;;;;;3.22;70.23;99031.63;4457657;32;33877;-62
2021/12/09 03:53:31;;;;;;;;;;;;;;;3.18;70.67;99021.97;4456592;32;34564;-62
2021/12/09 03:55:58;;;;;;;;;;;;;;;3.40;69.77;99025.84;4459642;32;34369;-62
2021/12/09 03:58:25;;;;;;;;;;;;;;;3.04;71.41;99020.28;4457206;32;33551;-62
2021/12/09 04:00:53;;;;;;;;;;;;;;;2.77;72.30;99025.44;4456623;32;34750;-63
2021/12/09 04:03:20;;;;;;;;;;;;;;;3.12;71.19;99039.53;4456131;32;34615;-63
2021/12/09 04:05:48;;;;;;;;;;;;;;;3.05;71.29;99029.69;4458177;32;34299;-63
2021/12/09 04:08:16;;;;;;;;;;;;;;;2.89;71.42;99015.94;4441961;32;34230;-63
2021/12/09 04:10:43;;;;;;;;;;;;;;;3.06;71.66;99018.69;4441803;32;34055;-64
2021/12/09 04:13:11;;;;;;;;;;;;;;;3.24;70.42;99014.69;4457006;32;34175;-64
2021/12/09 04:15:38;;;;;;;;;;;;;;;3.37;69.64;99010.31;4456898;32;33622;-64
2021/12/09 04:18:06;;;;;;;;;;;;;;;3.65;68.54;98997.47;4463718;32;33858;-64
2021/12/09 04:20:33;;;;;;;;;;;;;;;3.34;69.79;98993.97;4444862;32;33994;-64
2021/12/09 04:23:00;;;;;;;;;;;;;;;3.51;69.22;99004.34;4458600;32;33199;-64
2021/12/09 04:25:28;;;;;;;;;;;;;;;3.87;68.33;98999.62;4455040;32;34101;-64
2021/12/09 04:27:55;;;;;;;;;;;;;;;3.71;68.61;99024.34;4453532;32;34969;-64
2021/12/09 04:30:24;;;;;;;;;;;;;;;3.25;70.41;99042.06;4450018;32;33667;-64
2021/12/09 04:32:52;;;;;;;;;;;;;;;3.65;69.23;99039.34;4454006;32;35163;-64
2021/12/09 04:35:20;;;;;;;;;;;;;;;3.39;70.02;99030.09;4459249;32;34003;-64
2021/12/09 04:37:47;;;;;;;;;;;;;;;3.63;69.01;99034.91;4448536;32;34817;-63
2021/12/09 04:40:15;;;;;;;;;;;;;;;3.41;69.93;99025.06;4450105;32;33492;-64
2021/12/09 04:42:42;;;;;;;;;;;;;;;3.01;71.06;99010.69;4439109;32;35220;-64
2021/12/09 04:45:10;;;;;;;;;;;;;;;3.37;70.20;99000.06;4451197;32;33545;-63
2021/12/09 04:47:37;;;;;;;;;;;;;;;3.46;69.18;98986.16;4454576;32;35395;-63
2021/12/09 04:50:05;;;;;;;;;;;;;;;3.62;69.33;99000.75;4453503;32;34207;-63
2021/12/09 04:52:32;;;;;;;;;;;;;;;3.41;69.81;98990.09;4453354;32;32503;-63
2021/12/09 04:54:59;;;;;;;;;;;;;;;3.56;69.37;99000.38;4457178;32;33393;-63
2021/12/09 04:57:27;;;;;;;;;;;;;;;3.38;69.55;98992.50;4452940;32;33770;-63
2021/12/09 04:59:54;;;;;;;;;;;;;;;3.59;69.02;98984.31;4439323;32;34287;-63
2021/12/09 05:02:34;;;;;;;;;;;;;;;3.13;70.55;98987.56;4453762;32;35223;-64
2021/12/09 05:05:01;;;;;;;;;;;;;;;3.13;70.66;98991.00;4453438;32;34269;-63
2021/12/09 05:07:29;;;;;;;;;;;;;;;3.60;68.95;98994.66;4452195;32;33431;-63
2021/12/09 05:09:56;;;;;;;;;;;;;;;3.31;69.78;98987.78;4448924;32;34982;-63
2021/12/09 05:12:23;;;;;;;;;;;;;;;3.60;68.79;98989.53;4437710;32;36258;-63
2021/12/09 05:14:50;;;;;;;;;;;;;;;3.38;69.66;98991.59;4455515;32;33371;-63
2021/12/09 05:17:18;;;;;;;;;;;;;;;3.41;69.44;99002.91;4454716;32;33759;-63
2021/12/09 05:19:45;;;;;;;;;;;;;;;3.18;70.44;99009.19;4454588;32;34285;-63
2021/12/09 05:22:12;;;;;;;;;;;;;;;3.16;70.41;99000.53;4456462;32;35229;-64
2021/12/09 05:24:40;;;;;;;;;;;;;;;3.53;69.01;98997.63;4457015;32;34274;-64
2021/12/09 05:27:08;;;;;;;;;;;;;;;3.66;68.35;99000.13;4453915;32;34877;-64
2021/12/09 05:29:40;;;;;;;;;;;;;;;3.53;68.91;98997.63;4454675;32;34207;-64
2021/12/09 05:32:10;;;;;;;;;;;;;;;3.69;68.04;98989.16;4442854;32;33654;-64
2021/12/09 05:34:41;;;;;;;;;;;;;;;3.49;69.06;98980.31;4458494;32;33714;-64
2021/12/09 05:37:10;;;;;;;;;;;;;;;3.24;69.70;98994.19;4450853;32;34711;-64
2021/12/09 05:39:37;;;;;;;;;;;;;;;3.47;69.01;98972.53;4452022;32;33891;-64
2021/12/09 05:42:05;;;;;;;;;;;;;;;3.28;69.66;98969.69;4437992;32;34901;-64
2021/12/09 05:44:33;;;;;;;;;;;;;;;3.21;69.90;98963.31;4453606;32;34000;-64
2021/12/09 05:47:02;;;;;;;;;;;;;;;3.46;69.49;98963.09;4456156;32;34301;-63
2021/12/09 05:49:29;;;;;;;;;;;;;;;3.03;70.61;98957.09;4454899;32;34690;-64
2021/12/09 05:51:57;;;;;;;;;;;;;;;3.03;70.43;98932.38;4453853;32;32750;-64
2021/12/09 05:54:24;;;;;;;;;;;;;;;2.93;70.90;98936.03;4452662;32;33218;-63
2021/12/09 05:56:51;;;;;;;;;;;;;;;2.87;71.27;98920.34;4451513;32;34146;-63
2021/12/09 05:59:18;;;;;;;;;;;;;;;2.97;71.02;98926.87;4450949;32;33781;-63
2021/12/09 06:01:46;;;;;;;;;;;;;;;3.30;69.61;98927.13;4456124;32;33973;-64
2021/12/09 06:04:13;;;;;;;;;;;;;;;3.15;70.49;98932.25;4437246;32;31853;-63
2021/12/09 06:06:40;;;;;;;;;;;;;;;3.14;70.21;98925.34;4455154;32;34622;-64
2021/12/09 06:09:08;;;;;;;;;;;;;;;2.97;71.13;98938.81;4451815;32;34064;-64
2021/12/09 06:11:36;;;;;;;;;;;;;;;3.51;69.70;98930.09;4453281;32;34815;-64
2021/12/09 06:14:03;;;;;;;;;;;;;;;3.33;69.71;98923.09;4460049;32;33696;-64
2021/12/09 06:16:30;;;;;;;;;;;;;;;3.01;71.24;98915.16;4454402;32;34727;-64
2021/12/09 06:18:58;;;;;;;;;;;;;;;3.05;71.40;98924.78;4462834;32;33220;-64
2021/12/09 06:21:27;;;;;;;;;;;;;;;3.10;70.96;98920.84;4456327;32;35144;-64
2021/12/09 06:23:55;;;;;;;;;;;;;;;3.04;71.46;98917.94;4459716;32;34286;-64
2021/12/09 06:26:22;;;;;;;;;;;;;;;3.29;70.87;98904.91;4454095;32;34210;-64
2021/12/09 06:28:49;;;;;;;;;;;;;;;3.02;71.44;98911.84;4456846;32;34183;-64
2021/12/09 06:31:16;;;;;;;;;;;;;;;2.92;72.01;98908.72;4454735;32;34399;-64
2021/12/09 06:33:44;;;;;;;;;;;;;;;2.95;71.89;98903.81;4453504;32;34084;-64
2021/12/09 06:36:11;;;;;;;;;;;;;;;3.03;71.77;98900.78;4454710;32;34043;-64
2021/12/09 06:38:39;;;;;;;;;;;;;;;3.02;71.52;98904.16;4455695;32;33963;-64
2021/12/09 06:41:08;;;;;;;;;;;;;;;3.09;71.63;98898.59;4458039;32;35303;-64
2021/12/09 06:43:37;;;;;;;;;;;;;;;2.70;73.08;98893.72;4453331;32;32548;-64
2021/12/09 06:46:06;;;;;;;;;;;;;;;2.77;72.74;98897.56;4455295;32;33930;-63
2021/12/09 06:48:34;;;;;;;;;;;;;;;2.72;72.97;98909.16;4438504;32;34147;-64
2021/12/09 06:51:02;;;;;;;;;;;;;;;2.97;72.13;98900.44;4458341;32;34523;-64
2021/12/09 06:53:29;;;;;;;;;;;;;;;3.15;71.53;98901.53;4453818;32;33226;-64
2021/12/09 06:55:56;;;;;;;;;;;;;;;3.24;71.25;98916.53;4458010;32;34056;-64
2021/12/09 06:58:24;;;;;;;;;;;;;;;2.98;72.02;98922.69;4454364;32;33852;-64
2021/12/09 07:00:51;;;;;;;;;;;;;;;3.50;69.71;98929.22;4452558;32;34566;-64
2021/12/09 07:03:21;;;;;;;;;;;;;;;3.38;70.14;98930.16;4448859;32;33667;-64
2021/12/09 07:05:49;;;;;;;;;;;;;;;2.99;71.75;98930.41;4452467;32;34259;-64
2021/12/09 07:08:17;;;;;;;;;;;;;;;3.05;71.95;98935.03;4448606;32;34052;-63
2021/12/09 07:10:45;;;;;;;;;;;;;;;2.99;71.50;98934.66;4440137;32;33588;-63
2021/12/09 07:13:12;;;;;;;;;;;;;;;3.02;71.40;98924.63;4439479;32;32433;-63
2021/12/09 07:15:40;;;;;;;;;;;;;;;3.11;71.18;98935.38;4453013;32;34744;-63
2021/12/09 07:18:07;;;;;;;;;;;;;;;2.80;72.45;98935.22;4461742;32;34216;-63
2021/12/09 07:20:35;;;;;;;;;;;;;;;2.98;71.51;98938.03;4453216;32;35294;-63
2021/12/09 07:23:02;;;;;;;;;;;;;;;2.80;72.22;98941.25;4439575;32;31815;-63
2021/12/09 07:25:29;;;;;;;;;;;;;;;2.66;72.72;98935.25;4460636;32;34214;-63
2021/12/09 07:27:56;;;;;;;;;;;;;;;2.65;72.81;98928.38;4455276;32;34156;-63
2021/12/09 07:30:24;;;;;;;;;;;;;;;2.80;72.37;98910.53;4453352;32;35177;-62
2021/12/09 07:32:52;;;;;;;;;;;;;;;2.80;72.37;98908.00;4442922;32;33520;-62
2021/12/09 07:35:19;;;;;;;;;;;;;;;2.80;72.11;98902.87;4426233;32;33834;-63
2021/12/09 07:37:46;;;;;;;;;;;;;;;2.78;72.29;98899.31;4454030;32;34755;-63
2021/12/09 07:40:15;;;;;;;;;;;;;;;2.51;73.47;98899.41;4454292;32;34173;-63
2021/12/09 07:42:42;;;;;;;;;;;;;;;2.64;73.20;98900.16;4454405;32;33691;-63
2021/12/09 07:45:10;;;;;;;;;;;;;;;3.04;72.30;98905.13;4455181;32;34164;-62
2021/12/09 07:47:37;;;;;;;;;;;;;;;2.77;72.59;98887.31;4454307;32;34265;-62
2021/12/09 07:50:06;;;;;;;;;;;;;;;3.00;71.91;98891.28;4449109;32;33884;-61
2021/12/09 07:52:33;;;;;;;;;;;;;;;2.76;72.98;98883.00;4437785;32;33648;-63
2021/12/09 07:55:00;;;;;;;;;;;;;;;2.70;73.44;98890.28;4443428;32;34870;-62
2021/12/09 07:57:28;;;;;;;;;;;;;;;2.56;74.22;98892.88;4452344;32;34168;-62
2021/12/09 07:59:55;;;;;;;;;;;;;;;2.50;75.01;98889.09;4441721;32;34336;-63
2021/12/09 08:02:23;;;;;;;;;;;;;;;2.47;75.12;98884.69;4454896;32;34299;-63
2021/12/09 08:04:50;;;;;;;;;;;;;;;2.45;75.37;98888.78;4449606;32;34113;-64
2021/12/09 08:07:17;;;;;;;;;;;;;;;2.63;74.96;98878.81;4450641;32;34133;-63
2021/12/09 08:09:48;;;;;;;;;;;;;;;2.49;75.10;98889.84;4451328;32;32102;-64
2021/12/09 08:12:15;;;;;;;;;;;;;;;2.71;74.19;98877.59;4451506;32;33979;-63
2021/12/09 08:14:42;;;;;;;;;;;;;;;2.65;74.54;98881.47;4455188;32;33963;-63
2021/12/09 08:17:33;;;;;;;;;;;;;;;2.78;73.92;98883.97;4452058;32;33953;-64
2021/12/09 08:19:57;;;;;;;;;;;;;;;2.59;74.43;98884.53;4444789;32;34475;-63
2021/12/09 08:22:24;;;;;;;;;;;;;;;2.87;73.84;98884.53;4440822;32;33716;-64
2021/12/09 08:24:55;;;;;;;;;;;;;;;2.74;73.38;98887.13;4454745;32;34274;-63
2021/12/09 08:27:22;;;;;;;;;;;;;;;2.92;73.46;98877.16;4454646;32;34219;-63
2021/12/09 08:29:49;;;;;;;;;;;;;;;2.96;73.19;98879.09;4452408;32;34869;-63
2021/12/09 08:32:16;;;;;;;;;;;;;;;2.81;73.82;98873.06;4454852;32;33571;-63
2021/12/09 08:34:44;;;;;;;;;;;;;;;2.89;73.10;98877.81;4454243;32;33627;-64
2021/12/09 08:37:11;;;;;;;;;;;;;;;3.00;72.86;98869.94;4452560;32;34885;-65
2021/12/09 08:39:38;;;;;;;;;;;;;;;2.94;72.94;98863.66;4454063;32;34133;-66
2021/12/09 08:42:06;;;;;;;;;;;;;;;2.61;74.30;98859.03;4455200;32;33431;-64
2021/12/09 08:44:33;;;;;;;;;;;;;;;2.88;73.09;98855.63;4454215;32;34270;-63
2021/12/09 08:47:00;;;;;;;;;;;;;;;3.17;72.77;98858.09;4455174;32;34211;-63
2021/12/09 08:49:29;;;;;;;;;;;;;;;3.04;72.56;98851.41;4454123;32;34820;-64
2021/12/09 08:51:56;;;;;;;;;;;;;;;3.31;71.85;98845.31;4439263;32;33461;-64
2021/12/09 08:54:23;;;;;;;;;;;;;;;2.94;73.20;98860.22;4455400;32;34229;-63
2021/12/09 08:56:51;;;;;;;;;;;;;;;3.01;72.95;98851.22;4457021;32;34976;-63
2021/12/09 08:59:22;;;;;;;;;;;;;;;3.13;72.42;98852.81;4453573;32;34438;-62
2021/12/09 09:02:06;;;;;;;;;;;;;;;3.14;72.59;98849.47;4455404;32;33539;-62
2021/12/09 09:04:33;;;;;;;;;;;;;;;3.19;72.73;98857.44;4447114;32;34243;-62
2021/12/09 09:07:01;;;;;;;;;;;;;;;3.06;73.39;98854.94;4452562;32;33879;-62
2021/12/09 09:09:33;;;;;;;;;;;;;;;3.00;73.44;98860.56;4453022;32;34980;-62
2021/12/09 09:12:02;;;;;;;;;;;;;;;3.07;73.35;98856.69;4439233;32;33352;-62
2021/12/09 09:14:29;;;;;;;;;;;;;;;3.24;72.84;98866.22;4457512;32;33916;-62
2021/12/09 09:16:56;;;;;;;;;;;;;;;3.17;73.07;98868.34;4441000;32;35215;-62
2021/12/09 09:19:23;;;;;;;;;;;;;;;3.04;73.50;98871.88;4454649;32;34431;-62
2021/12/09 09:21:51;;;;;;;;;;;;;;;3.17;73.46;98874.38;4441209;32;33286;-62
2021/12/09 09:24:18;;;;;;;;;;;;;;;3.47;72.18;98869.25;4456348;32;34013;-62
2021/12/09 09:26:45;;;;;;;;;;;;;;;3.52;72.48;98881.53;4453746;32;34938;-63
2021/12/09 09:29:13;;;;;;;;;;;;;;;3.18;73.26;98876.12;4453488;32;34022;-63
2021/12/09 09:31:41;;;;;;;;;;;;;;;3.02;74.21;98874.34;4452278;32;33704;-62
2021/12/09 09:34:08;;;;;;;;;;;;;;;2.88;74.81;98850.50;4439557;32;34016;-62
2021/12/09 09:36:39;;;;;;;;;;;;;;;3.10;74.12;98839.84;4453975;32;34120;-62
2021/12/09 09:39:16;;;;;;;;;;;;;;;3.05;74.09;98828.47;4450885;32;34328;-62
2021/12/09 09:41:55;;;;;;;;;;;;;;;3.50;73.10;98831.03;4429346;32;34206;-62
2021/12/09 09:44:28;;;;;;;;;;;;;;;3.46;72.90;98816.31;4449192;32;34967;-62
2021/12/09 09:46:56;;;;;;;;;;;;;;;3.75;71.89;98825.63;4452924;32;34712;-62
2021/12/09 09:49:23;;;;;;;;;;;;;;;3.44;72.93;98805.06;4440358;32;35288;-62
2021/12/09 09:51:55;;;;;;;;;;;;;;;3.47;73.15;98792.44;4440376;32;33308;-62
2021/12/09 09:54:23;;;;;;;;;;;;;;;3.46;73.72;98800.94;4454473;32;34232;-62
2021/12/09 09:56:50;;;;;;;;;;;;;;;3.38;73.91;98803.06;4440874;32;34146;-62
2021/12/09 09:59:17;;;;;;;;;;;;;;;3.65;73.43;98793.50;4455025;32;35136;-63
2021/12/09 10:01:46;;;;;;;;;;;;;;;3.73;73.05;98781.09;4455034;32;33453;-62
2021/12/09 10:04:20;;;;;;;;;;;;;;;3.47;73.83;98788.19;4455392;32;34954;-62
2021/12/09 10:06:47;;;;;;;;;;;;;;;3.65;73.40;98783.25;4445782;32;33978;-63
2021/12/09 10:09:15;;;;;;;;;;;;;;;3.34;74.62;98781.53;4457327;32;35031;-62
2021/12/09 10:11:42;;;;;;;;;;;;;;;3.84;72.83;98792.81;4441607;32;33407;-62
2021/12/09 10:14:09;;;;;;;;;;;;;;;3.70;73.53;98780.94;4455637;32;33827;-63
2021/12/09 10:16:38;;;;;;;;;;;;;;;3.67;73.05;98768.84;4453472;32;34962;-63
2021/12/09 10:19:15;;;;;;;;;;;;;;;3.61;74.02;98765.97;4454798;32;34412;-63
2021/12/09 10:21:43;;;;;;;;;;;;;;;3.92;72.54;98759.91;4460462;32;33576;-64
2021/12/09 10:24:10;;;;;;;;;;;;;;;3.63;73.63;98772.03;4438940;32;32572;-63
2021/12/09 10:26:40;;;;;;;;;;;;;;;3.96;71.50;98764.44;4454279;32;33886;-63
2021/12/09 10:29:12;;;;;;;;;;;;;;;3.92;71.96;98762.47;4454823;32;33466;-63
2021/12/09 10:31:45;;;;;;;;;;;;;;;3.88;72.25;98752.88;4448709;32;34355;-63
2021/12/09 10:34:26;;;;;;;;;;;;;;;3.96;71.89;98759.31;4453457;32;34221;-63
2021/12/09 10:36:55;;;;;;;;;;;;;;;4.12;71.28;98761.00;4455251;32;35025;-63
2021/12/09 10:39:31;;;;;;;;;;;;;;;3.69;72.29;98769.81;4440415;32;34397;-63
2021/12/09 10:42:00;;;;;;;;;;;;;;;3.89;71.84;98767.44;4455273;32;34151;-64
2021/12/09 10:44:32;;;;;;;;;;;;;;;3.86;72.06;98781.00;4454589;32;34747;-63
2021/12/09 10:47:14;;;;;;;;;;;;;;;4.05;71.39;98770.03;4454660;32;33882;-63
2021/12/09 10:49:48;;;;;;;;;;;;;;;3.78;72.58;98768.53;4442622;32;34465;-63
2021/12/09 10:52:27;;;;;;;;;;;;;;;4.02;71.99;98781.78;4454297;32;33512;-63
2021/12/09 10:54:56;;;;;;;;;;;;;;;3.95;72.25;98772.91;4454870;32;34155;-64
2021/12/09 10:57:31;;;;;;;;;;;;;;;3.97;72.21;98755.94;4440700;32;33468;-64
2021/12/09 11:00:13;;;;;;;;;;;;;;;4.24;71.16;98760.78;4454844;32;34297;-63
2021/12/09 11:03:01;;;;;;;;;;;;;;;4.13;71.90;98763.66;4458607;32;33328;-63
2021/12/09 11:05:29;;;;;;;;;;;;;;;4.09;72.12;98764.25;4434126;32;33905;-63
2021/12/09 11:08:11;;;;;;;;;;;;;;;3.86;73.07;98763.06;4454684;32;34941;-63
2021/12/09 11:10:46;;;;;;;;;;;;;;;3.66;73.80;98758.50;4455999;32;34430;-64
2021/12/09 11:13:14;;;;;;;;;;;;;;;3.71;73.58;98763.09;4456881;32;33758;-64
2021/12/09 11:15:58;;;;;;;;;;;;;;;3.91;72.56;98755.59;4442107;32;34183;-64
2021/12/09 11:18:46;;;;;;;;;;;;;;;4.21;72.19;98741.00;4454392;32;33998;-63
2021/12/09 11:21:17;;;;;;;;;;;;;;;4.18;71.68;98739.94;4451998;32;34061;-63
2021/12/09 11:23:54;;;;;;;;;;;;;;;4.05;72.41;98736.72;4454330;32;34116;-63
2021/12/09 11:26:31;;;;;;;;;;;;;;;4.15;71.72;98725.28;4444265;32;33864;-63
2021/12/09 11:29:00;;;;;;;;;;;;;;;3.96;72.65;98712.28;4444025;32;34880;-63
2021/12/09 11:31:32;;;;;;;;;;;;;;;3.71;73.56;98706.75;4454094;32;34379;-63
2021/12/09 11:34:04;;;;;;;;;;;;;;;4.28;72.15;98717.41;4447017;32;33545;-63
2021/12/09 11:37:06;;;;;;;;;;;;;;;3.86;73.23;98716.03;4447139;32;34732;-63
2021/12/09 11:39:35;;;;;;;;;;;;;;;3.87;73.45;98728.06;4449681;32;33790;-64
2021/12/09 11:42:10;;;;;;;;;;;;;;;4.13;72.89;98707.28;4440074;32;34142;-64
2021/12/09 11:44:57;;;;;;;;;;;;;;;4.00;72.93;98730.50;4471162;32;33473;-64
2021/12/09 11:47:25;;;;;;;;;;;;;;;3.97;73.10;98720.06;4455731;32;34290;-63
2021/12/09 11:50:07;;;;;;;;;;;;;;;4.02;73.51;98718.63;4466868;32;34209;-64
2021/12/09 11:52:36;;;;;;;;;;;;;;;4.13;72.95;98722.66;4455876;32;34284;-64
2021/12/09 11:55:06;;;;;;;;;;;;;;;4.40;71.91;98708.59;4456386;32;33410;-64
2021/12/09 11:57:38;;;;;;;;;;;;;;;4.29;72.33;98700.38;4455668;32;33909;-63
2021/12/09 12:11:55;;;;;;;;;;;;;;;4.24;73.04;98691.56;4445461;32;34700;-64
2021/12/09 12:14:28;;;;;;;;;;;;;;;4.21;73.46;98688.81;4429332;32;33316;-63
2021/12/09 12:19:44;;;;;;;;;;;;;;;4.32;72.96;98672.31;4455233;32;34314;-64
2021/12/09 12:22:44;;;;;;;;;;;;;;;4.18;73.23;98678.44;4456254;32;33942;-64
2021/12/09 12:34:14;;;;;;;;;;;;;;;4.39;72.32;98676.97;4442703;32;33975;-63
2021/12/09 12:37:06;;;;;;;;;;;;;;;4.13;73.73;98667.94;4455828;32;34521;-63
2021/12/09 12:42:17;;;;;;;;;;;;;;;4.27;73.01;98678.91;4455381;32;34256;-63
2021/12/09 12:45:03;;;;;;;;;;;;;;;4.28;73.05;98681.53;4455997;32;34797;-63
2021/12/09 12:47:39;;;;;;;;;;;;;;;4.41;72.30;98689.87;4455152;32;35099;-64
2021/12/09 12:50:07;;;;;;;;;;;;;;;4.29;72.68;98685.00;4442095;32;33669;-64
2021/12/09 12:52:35;;;;;;;;;;;;;;;4.44;72.10;98703.72;4455480;32;34146;-64
2021/12/09 12:55:12;;;;;;;;;;;;;;;4.59;71.69;98702.75;4441405;32;33915;-64
2021/12/09 12:57:42;;;;;;;;;;;;;;;4.17;73.29;98697.16;4444588;32;35199;-64
2021/12/09 13:00:18;;;;;;;;;;;;;;;4.28;73.33;98699.47;4456002;32;32463;-63
2021/12/09 13:05:29;;;;;;;;;;;;;;;4.16;73.37;98701.41;4455290;32;35110;-64
2021/12/09 13:08:23;;;;;;;;;;;;;;;4.40;72.18;98700.91;4441988;32;34538;-63
2021/12/09 13:19:05;;;;;;;;;;;;;;;3.96;73.33;98694.34;4432959;32;34329;-64
2021/12/09 13:21:32;;;;;;;;;;;;;;;4.00;73.40;98689.50;4441567;32;33174;-64
2021/12/09 13:24:39;;;;;;;;;;;;;;;4.04;73.17;98683.72;4455740;32;34275;-64
2021/12/09 13:27:10;;;;;;;;;;;;;;;4.26;72.07;98682.25;4455196;32;33010;-64
2021/12/09 13:29:49;;;;;;;;;;;;;;;4.55;71.33;98673.50;4442959;32;34135;-64
2021/12/09 13:32:45;;;;;;;;;;;;;;;3.92;72.95;98660.91;4455431;32;33521;-63
2021/12/09 13:35:15;;;;;;;;;;;;;;;4.32;71.93;98667.19;4441130;32;33326;-63
2021/12/09 13:38:09;;;;;;;;;;;;;;;4.46;71.49;98668.78;4455559;32;34829;-64
2021/12/09 13:49:17;;;;;;;;;;;;;;;4.38;71.88;98666.63;4455294;32;33904;-64
2021/12/09 13:54:23;;;;;;;;;;;;;;;4.18;72.61;98663.06;4455076;32;32636;-64
2021/12/09 13:57:01;;;;;;;;;;;;;;;3.97;73.56;98658.56;4454781;32;34121;-64
2021/12/09 13:59:29;;;;;;;;;;;;;;;3.86;73.90;98659.69;4455498;32;33744;-64